createdAt,value
2022-12-07T00:01:26.921Z,7.45
2022-12-07T00:03:58.081Z,8.18
2022-12-07T00:06:24.892Z,9.13
2022-12-07T00:08:51.780Z,9.40
2022-12-07T00:11:21.691Z,9.90
2022-12-07T00:13:52.773Z,10.23
2022-12-07T00:16:21.690Z,9.80
2022-12-07T00:18:48.823Z,9.07
2022-12-07T00:21:22.083Z,9.07
2022-12-07T00:23:50.393Z,8.83
2022-12-07T00:26:21.589Z,8.70
2022-12-07T00:28:50.171Z,8.68
2022-12-07T00:31:18.658Z,8.57
2022-12-07T00:33:48.668Z,8.23
2022-12-07T00:36:21.844Z,7.72
2022-12-07T00:38:53.464Z,7.60
2022-12-07T00:41:22.459Z,7.10
2022-12-07T00:43:50.516Z,6.57
2022-12-07T00:46:18.765Z,5.97
2022-12-07T00:48:46.181Z,6.10
2022-12-07T00:51:15.571Z,6.00
2022-12-07T00:53:42.630Z,5.80
2022-12-07T00:56:18.672Z,5.50
2022-12-07T00:58:50.014Z,5.55
2022-12-07T01:01:17.011Z,5.63
2022-12-07T01:03:43.993Z,5.60
2022-12-07T01:06:16.496Z,6.25
2022-12-07T01:08:43.412Z,6.47
2022-12-07T01:11:14.721Z,6.75
2022-12-07T01:13:42.089Z,6.85
2022-12-07T01:16:11.916Z,7.20
2022-12-07T01:18:39.541Z,7.35
2022-12-07T01:21:07.710Z,7.70
2022-12-07T01:23:36.104Z,7.20
2022-12-07T01:26:11.764Z,7.50
2022-12-07T01:28:39.245Z,7.63
2022-12-07T01:31:12.696Z,7.30
2022-12-07T01:33:40.581Z,7.50
2022-12-07T01:36:16.464Z,6.85
2022-12-07T01:38:44.568Z,6.70
2022-12-07T01:41:11.906Z,6.93
2022-12-07T01:44:17.380Z,6.97
2022-12-07T01:46:50.313Z,6.95
2022-12-07T01:49:36.182Z,6.90
2022-12-07T01:52:15.143Z,7.30
2022-12-07T01:54:43.794Z,6.50
2022-12-07T01:57:11.790Z,6.60
2022-12-07T01:59:40.200Z,7.40
2022-12-07T02:02:15.154Z,7.60
2022-12-07T02:04:42.061Z,7.60
2022-12-07T02:07:09.366Z,6.63
2022-12-07T02:09:36.215Z,7.10
2022-12-07T02:12:03.841Z,6.32
2022-12-07T02:14:30.822Z,6.65
2022-12-07T02:17:15.868Z,6.97
2022-12-07T02:20:24.325Z,6.60
2022-12-07T02:23:37.043Z,7.13
2022-12-07T02:26:12.489Z,5.93
2022-12-07T02:29:01.546Z,6.05
2022-12-07T02:31:30.773Z,6.15
2022-12-07T02:34:25.919Z,5.90
2022-12-07T02:37:06.511Z,6.13
2022-12-07T02:39:47.724Z,6.10
2022-12-07T02:42:24.385Z,6.10
2022-12-07T02:44:52.944Z,5.82
2022-12-07T02:47:22.630Z,5.70
2022-12-07T02:49:51.371Z,5.32
2022-12-07T02:52:18.291Z,5.88
2022-12-07T02:54:45.146Z,5.30
2022-12-07T02:57:27.031Z,5.55
2022-12-07T03:00:03.690Z,4.82
2022-12-07T03:02:44.562Z,5.20
2022-12-07T03:05:41.455Z,4.25
2022-12-07T03:08:35.161Z,4.50
2022-12-07T03:11:11.415Z,4.30
2022-12-07T03:13:47.065Z,4.00
2022-12-07T03:16:22.498Z,4.25
2022-12-07T03:19:16.033Z,3.83
2022-12-07T03:21:50.663Z,3.80
2022-12-07T03:24:22.026Z,3.97
2022-12-07T03:27:03.843Z,3.70
2022-12-07T03:29:37.954Z,4.70
2022-12-07T03:32:11.392Z,3.83
2022-12-07T03:34:50.446Z,4.22
2022-12-07T03:37:24.921Z,4.28
2022-12-07T03:40:18.969Z,4.13
2022-12-07T03:42:46.382Z,4.20
2022-12-07T03:45:14.535Z,4.47
2022-12-07T03:47:59.415Z,3.60
2022-12-07T03:50:45.549Z,4.25
2022-12-07T03:53:15.122Z,4.35
2022-12-07T03:55:44.911Z,4.47
2022-12-07T03:58:18.925Z,4.88
2022-12-07T04:00:46.485Z,4.75
2022-12-07T04:03:13.472Z,4.80
2022-12-07T04:05:41.516Z,5.13
2022-12-07T04:08:08.490Z,5.00
2022-12-07T04:10:35.619Z,5.07
2022-12-07T04:13:02.585Z,4.53
2022-12-07T04:15:29.525Z,4.63
2022-12-07T04:17:56.413Z,4.90
2022-12-07T04:20:23.799Z,4.68
2022-12-07T04:22:50.642Z,4.43
2022-12-07T04:25:17.583Z,4.95
2022-12-07T04:27:44.397Z,4.50
2022-12-07T04:30:13.699Z,5.07
2022-12-07T04:32:40.686Z,4.80
2022-12-07T04:35:08.407Z,4.72
2022-12-07T04:37:35.470Z,4.80
2022-12-07T04:40:02.755Z,4.50
2022-12-07T04:42:29.871Z,4.75
2022-12-07T04:44:56.751Z,5.13
2022-12-07T04:47:23.580Z,4.28
2022-12-07T04:49:50.409Z,4.40
2022-12-07T04:52:17.280Z,4.10
2022-12-07T04:54:44.188Z,4.25
2022-12-07T04:57:11.163Z,4.70
2022-12-07T04:59:43.771Z,3.90
2022-12-07T05:02:12.386Z,4.80
2022-12-07T05:04:39.293Z,4.10
2022-12-07T05:07:06.159Z,4.32
2022-12-07T05:09:32.973Z,4.30
2022-12-07T05:11:59.875Z,4.00
2022-12-07T05:14:26.778Z,4.28
2022-12-07T05:16:54.587Z,4.10
2022-12-07T05:19:21.615Z,3.70
2022-12-07T05:21:48.837Z,4.20
2022-12-07T05:24:17.275Z,3.90
2022-12-07T05:26:44.763Z,3.88
2022-12-07T05:29:15.722Z,4.07
2022-12-07T05:31:43.623Z,4.40
2022-12-07T05:34:11.450Z,4.72
2022-12-07T05:36:38.337Z,4.70
2022-12-07T05:39:05.318Z,5.28
2022-12-07T05:41:50.717Z,5.05
2022-12-07T05:44:17.611Z,5.50
2022-12-07T05:46:44.705Z,4.80
2022-12-07T05:49:11.715Z,4.60
2022-12-07T05:51:38.736Z,4.95
2022-12-07T05:54:05.779Z,4.75
2022-12-07T05:56:32.860Z,4.90
2022-12-07T05:59:17.900Z,4.85
2022-12-07T06:01:44.999Z,4.70
2022-12-07T06:04:12.252Z,4.70
2022-12-07T06:06:39.243Z,4.53
2022-12-07T06:09:06.165Z,4.20
2022-12-07T06:11:51.736Z,5.00
2022-12-07T06:14:18.561Z,5.03
2022-12-07T06:16:45.550Z,4.80
2022-12-07T06:19:12.502Z,4.53
2022-12-07T06:21:39.413Z,4.68
2022-12-07T06:24:06.784Z,4.78
2022-12-07T06:26:33.766Z,4.50
2022-12-07T06:29:00.600Z,4.20
2022-12-07T06:31:27.514Z,4.50
2022-12-07T06:33:59.488Z,4.40
2022-12-07T06:36:27.379Z,4.70
2022-12-07T06:38:55.796Z,4.03
2022-12-07T06:41:22.955Z,4.25
2022-12-07T06:43:55.967Z,4.63
2022-12-07T06:46:23.912Z,4.20
2022-12-07T06:48:51.102Z,4.68
2022-12-07T06:51:18.050Z,4.03
2022-12-07T06:53:44.972Z,4.35
2022-12-07T06:56:11.900Z,4.28
2022-12-07T06:58:38.813Z,5.40
2022-12-07T07:01:19.529Z,4.47
2022-12-07T07:03:48.161Z,4.68
2022-12-07T07:06:16.437Z,5.05
2022-12-07T07:08:43.587Z,5.47
2022-12-07T07:11:11.351Z,5.03
2022-12-07T07:13:38.358Z,4.65
2022-12-07T07:16:05.980Z,4.50
2022-12-07T07:18:33.087Z,4.30
2022-12-07T07:20:59.972Z,4.38
2022-12-07T07:23:27.033Z,5.28
2022-12-07T07:25:54.264Z,5.85
2022-12-07T07:28:21.238Z,5.07
2022-12-07T07:30:48.312Z,5.30
2022-12-07T07:33:15.322Z,5.15
2022-12-07T07:35:42.486Z,4.55
2022-12-07T07:38:09.562Z,5.00
2022-12-07T07:40:36.856Z,5.15
2022-12-07T07:43:03.848Z,4.93
2022-12-07T07:45:30.737Z,5.20
2022-12-07T07:47:57.589Z,4.60
2022-12-07T07:50:24.822Z,4.85
2022-12-07T07:52:53.137Z,4.50
2022-12-07T07:55:20.389Z,4.90
2022-12-07T07:57:54.242Z,4.50
2022-12-07T08:00:22.344Z,4.60
2022-12-07T08:02:49.412Z,4.40
2022-12-07T08:05:16.824Z,3.90
2022-12-07T08:07:44.504Z,4.20
2022-12-07T08:10:13.282Z,4.00
2022-12-07T08:13:01.901Z,4.40
2022-12-07T08:15:30.378Z,4.35
2022-12-07T08:17:57.212Z,4.20
2022-12-07T08:20:24.170Z,4.18
2022-12-07T08:22:51.186Z,4.68
2022-12-07T08:25:18.725Z,4.45
2022-12-07T08:27:45.609Z,4.40
2022-12-07T08:30:12.692Z,4.88
2022-12-07T08:32:40.187Z,4.15
2022-12-07T08:35:09.683Z,4.05
2022-12-07T08:37:37.240Z,4.20
2022-12-07T08:40:06.290Z,4.32
2022-12-07T08:42:38.843Z,2.92
2022-12-07T08:45:11.384Z,2.10
2022-12-07T08:47:42.907Z,2.67
2022-12-07T08:50:12.328Z,2.67
2022-12-07T08:52:40.549Z,3.22
2022-12-07T08:55:08.026Z,3.40
2022-12-07T08:57:36.486Z,4.38
2022-12-07T09:00:05.380Z,3.72
2022-12-07T09:02:33.139Z,3.92
2022-12-07T09:05:00.080Z,3.40
2022-12-07T09:07:27.932Z,3.95
2022-12-07T09:09:54.803Z,3.78
2022-12-07T09:12:21.680Z,3.50
2022-12-07T09:14:48.552Z,3.72
2022-12-07T09:17:15.420Z,3.60
2022-12-07T09:19:43.537Z,4.22
2022-12-07T09:22:10.726Z,4.10
2022-12-07T09:24:37.623Z,4.30
2022-12-07T09:27:04.539Z,4.85
2022-12-07T09:29:31.425Z,4.80
2022-12-07T09:31:58.429Z,4.05
2022-12-07T09:34:25.783Z,3.25
2022-12-07T09:36:52.702Z,3.35
2022-12-07T09:39:19.896Z,2.83
2022-12-07T09:41:47.157Z,2.80
2022-12-07T09:44:25.505Z,2.63
2022-12-07T09:46:54.191Z,2.10
2022-12-07T09:49:25.036Z,2.67
2022-12-07T09:52:10.250Z,2.80
2022-12-07T09:54:41.003Z,2.60
2022-12-07T09:57:09.917Z,3.03
2022-12-07T09:59:36.955Z,3.03
2022-12-07T10:02:43.926Z,2.70
2022-12-07T10:05:24.644Z,3.42
2022-12-07T10:07:54.788Z,3.35
2022-12-07T10:10:37.973Z,4.05
2022-12-07T10:13:06.930Z,3.92
2022-12-07T10:16:06.586Z,4.20
2022-12-07T10:18:42.428Z,3.55
2022-12-07T10:21:10.019Z,3.80
2022-12-07T10:23:39.422Z,3.38
2022-12-07T10:26:37.052Z,3.90
2022-12-07T10:29:15.110Z,3.63
2022-12-07T10:31:43.263Z,3.80
2022-12-07T10:34:30.288Z,3.78
2022-12-07T10:37:18.488Z,3.28
2022-12-07T10:39:56.855Z,3.55
2022-12-07T10:42:23.687Z,2.97
2022-12-07T10:45:08.722Z,2.92
2022-12-07T10:47:49.821Z,2.40
2022-12-07T10:50:20.227Z,2.83
2022-12-07T10:52:59.160Z,2.30
2022-12-07T10:55:47.690Z,1.90
2022-12-07T10:58:14.508Z,2.70
2022-12-07T11:00:51.323Z,1.85
2022-12-07T11:03:27.419Z,1.90
2022-12-07T11:06:37.882Z,1.80
2022-12-07T11:09:44.946Z,2.42
2022-12-07T11:12:33.162Z,2.95
2022-12-07T11:15:07.445Z,2.97
2022-12-07T11:17:46.341Z,2.45
2022-12-07T11:20:42.748Z,3.00
2022-12-07T11:23:21.676Z,3.17
2022-12-07T11:26:01.448Z,3.30
2022-12-07T11:28:51.297Z,4.07
2022-12-07T11:31:38.345Z,4.32
2022-12-07T11:34:13.448Z,4.32
2022-12-07T11:36:45.472Z,4.80
2022-12-07T11:39:40.498Z,4.40
2022-12-07T11:42:15.686Z,4.67
2022-12-07T11:44:52.887Z,4.53
2022-12-07T11:47:37.872Z,4.07
2022-12-07T11:50:36.827Z,3.88
2022-12-07T11:53:09.865Z,4.50
2022-12-07T11:55:39.901Z,3.20
2022-12-07T11:58:28.684Z,2.03
2022-12-07T12:01:08.886Z,3.00
2022-12-07T12:03:41.262Z,2.40
2022-12-07T12:06:08.223Z,2.03
2022-12-07T12:14:56.168Z,2.28
2022-12-07T12:17:44.923Z,2.38
2022-12-07T12:20:40.327Z,1.92
2022-12-07T12:23:19.336Z,2.33
2022-12-07T12:25:56.679Z,2.30
2022-12-07T12:29:00.108Z,2.20
2022-12-07T12:31:40.906Z,2.40
2022-12-07T12:34:31.374Z,2.67
2022-12-07T12:36:58.514Z,2.03
2022-12-07T12:39:26.272Z,1.75
2022-12-07T12:41:57.780Z,1.80
2022-12-07T12:44:30.364Z,1.67
2022-12-07T12:47:05.763Z,1.70
2022-12-07T12:49:34.522Z,1.80
2022-12-07T12:52:15.035Z,1.67
2022-12-07T12:55:10.024Z,1.73
2022-12-07T12:57:38.205Z,1.85
2022-12-07T13:00:23.710Z,2.00
2022-12-07T13:02:59.967Z,2.10
2022-12-07T13:05:32.535Z,2.00
2022-12-07T13:08:02.702Z,2.90
2022-12-07T13:10:32.897Z,2.10
2022-12-07T13:13:25.688Z,2.47
2022-12-07T13:16:07.809Z,2.30
2022-12-07T13:18:34.671Z,2.25
2022-12-07T13:21:08.534Z,2.50
2022-12-07T13:23:45.756Z,2.42
2022-12-07T13:26:33.378Z,2.25
2022-12-07T13:29:18.614Z,2.80
2022-12-07T13:31:50.446Z,2.20
2022-12-07T13:34:43.068Z,1.90
2022-12-07T13:37:33.684Z,1.63
2022-12-07T13:40:22.263Z,1.87
2022-12-07T13:42:49.195Z,1.37
2022-12-07T13:45:49.085Z,1.75
2022-12-07T13:48:35.867Z,1.48
2022-12-07T13:51:05.043Z,1.40
2022-12-07T13:53:32.012Z,1.70
2022-12-07T13:56:00.118Z,1.60
2022-12-07T13:58:30.712Z,1.83
2022-12-07T14:00:58.578Z,2.20
2022-12-07T14:03:34.794Z,2.40
2022-12-07T14:06:18.768Z,2.80
2022-12-07T14:08:46.577Z,2.58
2022-12-07T14:11:20.041Z,2.20
2022-12-07T14:14:00.356Z,2.50
2022-12-07T14:16:33.381Z,1.83
2022-12-07T14:19:02.841Z,2.50
2022-12-07T14:21:31.954Z,3.10
2022-12-07T14:24:17.192Z,3.00
2022-12-07T14:26:45.706Z,2.60
2022-12-07T14:29:28.232Z,2.40
2022-12-07T14:31:56.240Z,2.63
2022-12-07T14:34:23.899Z,2.90
2022-12-07T14:36:51.199Z,2.65
2022-12-07T14:39:18.279Z,2.80
2022-12-07T14:41:51.422Z,3.13
2022-12-07T14:44:26.080Z,3.08
2022-12-07T14:49:42.218Z,3.50
2022-12-07T14:55:16.960Z,3.63
2022-12-07T14:57:43.908Z,3.40
2022-12-07T15:00:15.462Z,3.40
2022-12-07T15:02:42.307Z,3.60
2022-12-07T15:05:15.748Z,3.92
2022-12-07T15:07:43.899Z,3.38
2022-12-07T15:10:32.670Z,2.90
2022-12-07T15:13:20.856Z,2.97
2022-12-07T15:15:48.912Z,3.30
2022-12-07T15:18:16.281Z,3.22
2022-12-07T15:20:43.240Z,2.92
2022-12-07T15:23:12.046Z,3.33
2022-12-07T15:25:42.791Z,3.70
2022-12-07T15:28:09.732Z,3.60
2022-12-07T15:30:39.004Z,3.42
2022-12-07T15:33:05.974Z,3.65
2022-12-07T15:35:32.944Z,3.45
2022-12-07T15:37:59.856Z,3.70
2022-12-07T15:40:26.785Z,3.50
2022-12-07T15:42:53.678Z,3.70
2022-12-07T15:45:20.591Z,3.60
2022-12-07T15:48:26.245Z,3.40
2022-12-07T15:50:34.394Z,3.73
2022-12-07T15:53:01.277Z,5.82
2022-12-07T15:55:28.105Z,4.30
2022-12-07T15:57:54.983Z,3.10
2022-12-07T16:00:21.948Z,3.95
2022-12-07T16:02:48.924Z,3.85
2022-12-07T16:05:15.841Z,3.60
2022-12-07T16:07:43.104Z,4.40
2022-12-07T16:10:10.541Z,5.80
2022-12-07T16:12:37.432Z,5.25
2022-12-07T16:15:04.828Z,3.70
2022-12-07T16:17:31.957Z,3.35
2022-12-07T16:19:59.158Z,3.88
2022-12-07T16:22:26.043Z,3.45
2022-12-07T16:24:52.907Z,2.80
2022-12-07T16:27:19.888Z,2.60
2022-12-07T16:29:46.772Z,2.83
2022-12-07T16:32:13.673Z,2.70
2022-12-07T16:34:40.924Z,2.83
2022-12-07T16:37:07.900Z,2.75
2022-12-07T16:39:35.310Z,3.20
2022-12-07T16:42:02.344Z,2.70
2022-12-07T16:44:29.338Z,2.42
2022-12-07T16:46:59.631Z,2.70
2022-12-07T16:49:26.697Z,2.60
2022-12-07T16:52:14.948Z,2.70
2022-12-07T16:54:40.826Z,2.83
2022-12-07T16:57:07.746Z,2.70
2022-12-07T16:59:34.746Z,2.70
2022-12-07T17:02:01.709Z,3.03
2022-12-07T17:04:29.039Z,2.60
2022-12-07T17:06:56.103Z,3.10
2022-12-07T17:09:23.035Z,3.20
2022-12-07T17:11:49.898Z,2.70
2022-12-07T17:14:35.158Z,2.80
2022-12-07T17:17:02.382Z,2.72
2022-12-07T17:19:29.317Z,3.05
2022-12-07T17:21:56.342Z,2.80
2022-12-07T17:24:23.507Z,2.95
2022-12-07T17:26:50.500Z,2.60
2022-12-07T17:29:19.492Z,2.80
2022-12-07T17:31:51.307Z,3.20
2022-12-07T17:34:19.298Z,3.03
2022-12-07T17:36:46.620Z,3.10
2022-12-07T17:39:17.512Z,3.40
2022-12-07T17:42:03.111Z,3.30
2022-12-07T17:44:30.150Z,3.20
2022-12-07T17:47:02.542Z,3.77
2022-12-07T17:49:29.682Z,3.80
2022-12-07T17:52:14.866Z,3.60
2022-12-07T17:54:41.779Z,3.50
2022-12-07T17:57:09.947Z,4.07
2022-12-07T17:59:36.936Z,3.70
2022-12-07T18:02:04.123Z,3.90
2022-12-07T18:04:31.227Z,3.70
2022-12-07T18:06:58.532Z,3.92
2022-12-07T18:09:25.534Z,3.80
2022-12-07T18:11:52.458Z,3.80
2022-12-07T18:14:19.320Z,4.35
2022-12-07T18:16:46.554Z,4.00
2022-12-07T18:19:14.752Z,4.22
2022-12-07T18:21:42.502Z,4.30
2022-12-07T18:24:11.909Z,5.45
2022-12-07T18:26:39.484Z,5.50
2022-12-07T18:29:07.404Z,4.90
2022-12-07T18:31:36.090Z,4.60
2022-12-07T18:34:05.291Z,4.55
2022-12-07T18:36:32.336Z,4.95
2022-12-07T18:38:59.362Z,13.88
2022-12-07T18:41:26.228Z,9.80
2022-12-07T18:43:53.072Z,16.53
2022-12-07T18:46:21.668Z,10.88
2022-12-07T18:48:50.382Z,7.18
2022-12-07T18:51:19.045Z,8.85
2022-12-07T18:53:46.567Z,6.90
2022-12-07T18:56:21.935Z,8.40
2022-12-07T18:59:15.776Z,17.52
2022-12-07T19:01:45.223Z,9.07
2022-12-07T19:04:12.229Z,5.30
2022-12-07T19:06:42.176Z,5.00
2022-12-07T19:09:09.210Z,5.30
2022-12-07T19:11:51.388Z,5.18
2022-12-07T19:14:33.981Z,5.20
2022-12-07T19:17:04.196Z,5.50
2022-12-07T19:19:38.611Z,5.57
2022-12-07T19:22:06.822Z,5.40
2022-12-07T19:24:34.214Z,5.00
2022-12-07T19:27:01.700Z,5.00
2022-12-07T19:29:31.299Z,5.10
2022-12-07T19:32:03.301Z,5.03
2022-12-07T19:34:30.351Z,4.50
2022-12-07T19:36:58.591Z,5.00
2022-12-07T19:39:25.539Z,4.43
2022-12-07T19:41:52.433Z,4.50
2022-12-07T19:44:27.821Z,4.40
2022-12-07T19:47:04.003Z,4.50
2022-12-07T19:49:34.384Z,4.60
2022-12-07T19:52:04.396Z,4.97
2022-12-07T19:54:32.282Z,4.57
2022-12-07T19:56:59.265Z,4.50
2022-12-07T19:59:29.163Z,4.60
2022-12-07T20:01:56.279Z,4.97
2022-12-07T20:04:26.112Z,4.95
2022-12-07T20:06:56.076Z,5.60
2022-12-07T20:09:23.669Z,5.38
2022-12-07T20:12:09.898Z,4.88
2022-12-07T20:14:37.983Z,4.82
2022-12-07T20:17:05.199Z,4.80
2022-12-07T20:19:32.177Z,4.30
2022-12-07T20:21:59.019Z,4.15
2022-12-07T20:24:26.576Z,3.92
2022-12-07T20:26:54.265Z,3.88
2022-12-07T20:29:24.013Z,4.20
2022-12-07T20:31:52.770Z,4.13
2022-12-07T20:34:20.414Z,3.92
2022-12-07T20:36:47.403Z,3.87
2022-12-07T20:39:14.721Z,3.85
2022-12-07T20:42:00.205Z,4.37
2022-12-07T20:44:27.500Z,4.10
2022-12-07T20:46:54.678Z,3.63
2022-12-07T20:49:21.991Z,3.72
2022-12-07T20:51:48.900Z,4.05
2022-12-07T20:54:16.943Z,3.90
2022-12-07T20:56:43.856Z,4.30
2022-12-07T20:59:14.368Z,4.73
2022-12-07T21:01:42.255Z,5.00
2022-12-07T21:04:10.833Z,5.20
2022-12-07T21:06:37.784Z,4.93
2022-12-07T21:09:04.716Z,5.10
2022-12-07T21:11:32.569Z,5.18
2022-12-07T21:13:59.650Z,5.70
2022-12-07T21:16:29.642Z,5.90
2022-12-07T21:18:58.864Z,6.20
2022-12-07T21:21:26.015Z,5.90
2022-12-07T21:24:00.000Z,5.90
2022-12-07T21:26:29.035Z,6.00
2022-12-07T21:28:57.162Z,6.43
2022-12-07T21:31:27.226Z,6.95
2022-12-07T21:33:54.380Z,6.93
2022-12-07T21:36:23.976Z,7.05
2022-12-07T21:38:51.373Z,7.68
2022-12-07T21:41:27.146Z,7.70
2022-12-07T21:43:54.408Z,7.53
2022-12-07T21:46:28.105Z,7.35
2022-12-07T21:49:01.334Z,6.70
2022-12-07T21:51:29.806Z,6.03
2022-12-07T21:53:58.545Z,5.72
2022-12-07T21:56:28.264Z,5.38
2022-12-07T21:58:59.431Z,5.53
2022-12-07T22:01:28.460Z,5.40
2022-12-07T22:03:55.680Z,4.82
2022-12-07T22:06:26.446Z,5.22
2022-12-07T22:08:54.259Z,5.05
2022-12-07T22:11:21.577Z,5.10
2022-12-07T22:14:10.552Z,5.60
2022-12-07T22:16:39.147Z,5.68
2022-12-07T22:19:07.705Z,6.32
2022-12-07T22:21:35.129Z,5.80
2022-12-07T22:24:03.005Z,6.20
2022-12-07T22:26:30.215Z,5.80
2022-12-07T22:28:57.231Z,6.10
2022-12-07T22:31:24.952Z,6.45
2022-12-07T22:33:52.287Z,6.50
2022-12-07T22:36:19.351Z,6.28
2022-12-07T22:38:47.007Z,6.55
2022-12-07T22:41:23.833Z,6.37
2022-12-07T22:43:50.779Z,5.82
2022-12-07T22:46:18.041Z,5.60
2022-12-07T22:48:45.140Z,5.40
2022-12-07T22:51:32.802Z,5.78
2022-12-07T22:54:01.206Z,5.65
2022-12-07T22:56:29.654Z,5.05
2022-12-07T22:58:56.862Z,5.60
2022-12-07T23:01:24.557Z,5.28
2022-12-07T23:03:51.970Z,5.05
2022-12-07T23:06:22.914Z,4.70
2022-12-07T23:08:50.104Z,5.30
2022-12-07T23:11:38.854Z,5.25
2022-12-07T23:14:13.483Z,4.80
2022-12-07T23:16:41.039Z,4.95
2022-12-07T23:19:08.104Z,5.53
2022-12-07T23:21:35.397Z,5.53
2022-12-07T23:24:02.618Z,5.33
2022-12-07T23:26:29.664Z,5.57
2022-12-07T23:28:58.307Z,5.15
2022-12-07T23:31:25.850Z,5.40
2022-12-07T23:33:52.744Z,5.30
2022-12-07T23:36:25.765Z,5.50
2022-12-07T23:38:54.183Z,5.60
2022-12-07T23:41:23.691Z,5.47
2022-12-07T23:43:51.183Z,5.95
2022-12-07T23:46:20.395Z,6.50
2022-12-07T23:48:49.297Z,6.20
2022-12-07T23:51:16.873Z,5.90
2022-12-07T23:53:46.754Z,6.05
2022-12-07T23:56:16.054Z,6.00
2022-12-07T23:58:43.390Z,6.15
